Time;durP1;ratioP1;P1;durP2;ratioP2;P2;SDS_P1;SDS_P2;PMS_P1;PMS_P2;Temp;Humidity;BMP_temperature;BMP_pressure;BME280_temperature;BME280_humidity;BME280_pressure;Samples;Min_cycle;Max_cycle;Signal;HPM_P1;HPM_P2
2021/10/20 00:00:20;;;;;;;29.10;17.23;;;;;;;;;;5054052;28;20083;-83
2021/10/20 00:02:49;;;;;;;28.80;18.80;;;;;;;;;;5053718;28;20167;-82
2021/10/20 00:05:22;;;;;;;32.47;17.48;;;;;;;;;;5056117;28;20057;-81
2021/10/20 00:07:49;;;;;;;27.52;16.83;;;;;;;;;;5053284;28;20111;-81
2021/10/20 00:10:17;;;;;;;24.50;17.23;;;;;;;;;;5053141;28;20139;-82
2021/10/20 00:12:46;;;;;;;31.42;17.23;;;;;;;;;;5053800;28;20164;-81
2021/10/20 00:15:15;;;;;;;27.15;17.73;;;;;;;;;;5064543;28;20053;-82
2021/10/20 00:17:42;;;;;;;27.85;17.17;;;;;;;;;;5065986;28;20268;-82
2021/10/20 00:20:14;;;;;;;28.92;16.95;;;;;;;;;;5061136;28;20080;-82
2021/10/20 00:22:41;;;;;;;28.70;17.63;;;;;;;;;;5056205;28;20083;-82
2021/10/20 00:25:08;;;;;;;26.27;17.80;;;;;;;;;;5055317;28;20102;-82
2021/10/20 00:27:36;;;;;;;34.88;18.63;;;;;;;;;;5057610;28;20332;-82
2021/10/20 00:30:03;;;;;;;26.83;17.27;;;;;;;;;;5056391;28;20060;-82
2021/10/20 00:32:32;;;;;;;29.70;16.75;;;;;;;;;;5056346;28;20335;-82
2021/10/20 00:34:59;;;;;;;25.58;17.42;;;;;;;;;;5055908;28;20429;-82
2021/10/20 00:37:35;;;;;;;23.65;15.60;;;;;;;;;;5055660;28;20056;-82
2021/10/20 00:40:03;;;;;;;26.08;16.27;;;;;;;;;;5055380;28;20052;-82
2021/10/20 00:42:30;;;;;;;24.48;15.40;;;;;;;;;;5055118;28;20071;-82
2021/10/20 00:44:58;;;;;;;26.80;16.10;;;;;;;;;;5053691;28;20147;-82
2021/10/20 00:47:31;;;;;;;23.10;14.40;;;;;;;;;;5057129;28;20224;-82
2021/10/20 00:49:57;;;;;;;21.30;15.07;;;;;;;;;;5055379;28;20151;-82
2021/10/20 00:52:25;;;;;;;21.48;14.13;;;;;;;;;;5054267;28;20077;-82
2021/10/20 00:54:53;;;;;;;26.30;15.00;;;;;;;;;;5055535;28;20425;-82
2021/10/20 00:57:22;;;;;;;27.92;14.95;;;;;;;;;;5058302;28;20056;-82
2021/10/20 00:59:51;;;;;;;21.92;14.10;;;;;;;;;;5073338;28;20109;-81
2021/10/20 01:02:17;;;;;;;21.52;13.43;;;;;;;;;;5089705;28;20056;-82
2021/10/20 01:04:47;;;;;;;24.70;13.85;;;;;;;;;;5064659;28;20202;-82
2021/10/20 01:07:14;;;;;;;17.42;12.90;;;;;;;;;;5070394;28;20063;-82
2021/10/20 01:09:41;;;;;;;20.00;13.50;;;;;;;;;;5092323;28;20056;-82
2021/10/20 01:12:09;;;;;;;18.55;13.05;;;;;;;;;;5091007;28;20044;-83
2021/10/20 01:14:39;;;;;;;22.17;13.05;;;;;;;;;;5089232;28;20087;-82
2021/10/20 01:17:06;;;;;;;20.05;13.18;;;;;;;;;;5071460;28;20114;-82
2021/10/20 01:19:34;;;;;;;16.25;12.40;;;;;;;;;;5088805;28;20082;-82
2021/10/20 01:22:03;;;;;;;19.10;13.05;;;;;;;;;;5091659;28;20083;-82
2021/10/20 01:24:30;;;;;;;18.50;12.68;;;;;;;;;;5071347;28;20120;-82
2021/10/20 01:26:57;;;;;;;22.60;13.25;;;;;;;;;;5069343;28;20053;-81
2021/10/20 01:29:24;;;;;;;18.75;12.40;;;;;;;;;;5078374;28;20095;-81
2021/10/20 01:31:56;;;;;;;18.40;12.40;;;;;;;;;;5077868;28;20057;-81
2021/10/20 01:34:23;;;;;;;23.35;12.00;;;;;;;;;;5066630;28;20086;-81
2021/10/20 01:36:51;;;;;;;16.40;10.98;;;;;;;;;;5059391;28;20088;-81
2021/10/20 01:39:19;;;;;;;17.75;11.52;;;;;;;;;;5058615;28;20083;-81
2021/10/20 01:41:46;;;;;;;17.98;11.15;;;;;;;;;;5080360;28;20087;-81
2021/10/20 01:44:13;;;;;;;17.70;11.05;;;;;;;;;;5096488;28;20052;-81
2021/10/20 01:46:41;;;;;;;19.85;11.48;;;;;;;;;;5096800;28;20086;-82
2021/10/20 01:49:08;;;;;;;17.27;12.07;;;;;;;;;;5078438;28;20048;-82
2021/10/20 01:51:34;;;;;;;16.85;11.10;;;;;;;;;;5096610;28;20067;-82
2021/10/20 01:54:01;;;;;;;19.23;11.15;;;;;;;;;;5078966;28;20110;-82
2021/10/20 01:56:28;;;;;;;17.02;11.05;;;;;;;;;;5098778;28;20047;-82
2021/10/20 01:58:55;;;;;;;16.95;11.15;;;;;;;;;;5082778;28;20192;-82
2021/10/20 02:01:23;;;;;;;15.30;10.75;;;;;;;;;;5082547;28;20059;-82
2021/10/20 02:03:51;;;;;;;14.23;9.88;;;;;;;;;;5098833;28;20048;-85
2021/10/20 02:06:20;;;;;;;17.58;10.30;;;;;;;;;;5082901;28;20068;-82
2021/10/20 02:08:50;;;;;;;18.20;10.30;;;;;;;;;;5099589;28;20319;-82
2021/10/20 02:11:18;;;;;;;16.90;10.18;;;;;;;;;;5081360;28;20095;-81
2021/10/20 02:13:45;;;;;;;18.52;9.98;;;;;;;;;;5081246;28;20048;-82
2021/10/20 02:16:17;;;;;;;14.98;9.25;;;;;;;;;;5080624;28;20063;-81
2021/10/20 02:18:44;;;;;;;15.52;10.02;;;;;;;;;;5081872;28;20052;-81
2021/10/20 02:21:11;;;;;;;13.77;9.07;;;;;;;;;;5099484;28;20147;-81
2021/10/20 02:23:38;;;;;;;15.27;9.20;;;;;;;;;;5099576;28;20071;-81
2021/10/20 02:26:05;;;;;;;17.30;9.57;;;;;;;;;;5080611;28;20075;-81
2021/10/20 02:28:32;;;;;;;16.35;9.02;;;;;;;;;;5080582;28;20107;-81
2021/10/20 02:31:03;;;;;;;15.05;9.80;;;;;;;;;;5081683;28;20121;-81
2021/10/20 02:33:30;;;;;;;13.68;9.10;;;;;;;;;;5080552;28;20460;-81
2021/10/20 02:35:57;;;;;;;18.02;9.48;;;;;;;;;;5082314;28;20064;-81
2021/10/20 02:38:24;;;;;;;15.27;9.15;;;;;;;;;;5081489;28;20078;-82
2021/10/20 02:40:55;;;;;;;13.85;8.77;;;;;;;;;;5098669;28;20052;-82
2021/10/20 02:43:24;;;;;;;13.52;8.88;;;;;;;;;;5099360;28;20325;-82
2021/10/20 02:45:59;;;;;;;11.93;8.45;;;;;;;;;;5099807;28;20119;-82
2021/10/20 02:48:27;;;;;;;14.30;8.35;;;;;;;;;;5080111;28;20546;-82
2021/10/20 02:50:57;;;;;;;12.70;8.73;;;;;;;;;;5081462;28;20060;-82
2021/10/20 02:53:24;;;;;;;13.73;7.43;;;;;;;;;;5080839;28;20086;-82
2021/10/20 02:55:55;;;;;;;14.23;7.72;;;;;;;;;;5083114;28;20067;-82
2021/10/20 02:58:21;;;;;;;12.13;7.85;;;;;;;;;;5081301;28;20075;-82
2021/10/20 03:00:49;;;;;;;11.27;7.90;;;;;;;;;;5098443;28;20071;-82
2021/10/20 03:03:16;;;;;;;12.93;7.40;;;;;;;;;;5098805;28;20414;-82
2021/10/20 03:05:42;;;;;;;11.23;7.60;;;;;;;;;;5081966;28;20092;-82
2021/10/20 03:08:13;;;;;;;11.15;7.40;;;;;;;;;;5080584;28;20056;-84
2021/10/20 03:10:40;;;;;;;12.88;6.60;;;;;;;;;;5080462;28;20059;-82
2021/10/20 03:13:07;;;;;;;13.77;7.35;;;;;;;;;;5097252;28;20052;-82
2021/10/20 03:15:34;;;;;;;11.05;6.50;;;;;;;;;;5076737;28;20098;-82
2021/10/20 03:18:02;;;;;;;16.15;7.88;;;;;;;;;;5060100;28;20053;-82
2021/10/20 03:20:29;;;;;;;14.35;7.25;;;;;;;;;;5078531;28;20060;-82
2021/10/20 03:22:58;;;;;;;13.60;6.57;;;;;;;;;;5075816;28;20150;-81
2021/10/20 03:25:26;;;;;;;10.80;6.63;;;;;;;;;;5076579;28;20048;-82
2021/10/20 03:27:53;;;;;;;12.27;6.85;;;;;;;;;;5076347;28;20290;-82
2021/10/20 03:30:23;;;;;;;11.07;6.25;;;;;;;;;;5083134;28;20114;-81
2021/10/20 03:32:49;;;;;;;9.93;6.90;;;;;;;;;;5080899;28;20053;-81
2021/10/20 03:35:18;;;;;;;12.07;6.78;;;;;;;;;;5082593;28;20077;-81
2021/10/20 03:37:45;;;;;;;10.60;5.93;;;;;;;;;;5063490;28;20056;-81
2021/10/20 03:40:14;;;;;;;10.27;5.88;;;;;;;;;;5079048;28;20094;-82
2021/10/20 03:42:44;;;;;;;10.35;6.13;;;;;;;;;;5079200;28;20292;-82
2021/10/20 03:45:11;;;;;;;10.15;6.18;;;;;;;;;;5079108;28;20338;-82
2021/10/20 03:47:38;;;;;;;10.88;6.82;;;;;;;;;;5080313;28;20475;-81
2021/10/20 03:50:04;;;;;;;13.82;6.10;;;;;;;;;;5077532;28;20067;-81
2021/10/20 03:52:31;;;;;;;9.45;5.70;;;;;;;;;;5077509;28;20067;-82
2021/10/20 03:54:58;;;;;;;8.73;5.82;;;;;;;;;;5084829;28;20056;-82
2021/10/20 03:57:25;;;;;;;9.88;5.97;;;;;;;;;;5091951;28;20072;-83
2021/10/20 03:59:52;;;;;;;20.80;6.65;;;;;;;;;;5079942;28;20362;-82
2021/10/20 04:02:19;;;;;;;13.90;5.70;;;;;;;;;;5075345;28;20053;-82
2021/10/20 04:04:46;;;;;;;10.90;5.75;;;;;;;;;;5076268;28;20118;-83
2021/10/20 04:07:13;;;;;;;7.90;5.53;;;;;;;;;;5083767;28;20056;-82
2021/10/20 04:09:42;;;;;;;15.07;5.97;;;;;;;;;;5069670;28;20082;-82
2021/10/20 04:12:09;;;;;;;12.13;6.15;;;;;;;;;;5082322;28;20324;-82
2021/10/20 04:14:40;;;;;;;10.80;5.63;;;;;;;;;;5059281;28;20060;-82
2021/10/20 04:17:06;;;;;;;9.05;6.10;;;;;;;;;;5058640;28;20059;-83
2021/10/20 04:19:34;;;;;;;9.55;5.82;;;;;;;;;;5060658;28;20139;-82
2021/10/20 04:22:06;;;;;;;10.65;6.60;;;;;;;;;;5077069;28;20056;-83
2021/10/20 04:24:33;;;;;;;13.60;5.82;;;;;;;;;;5057210;28;20053;-83
2021/10/20 04:27:01;;;;;;;13.45;5.53;;;;;;;;;;5058303;28;20053;-80
2021/10/20 04:29:28;;;;;;;10.02;5.80;;;;;;;;;;5076870;28;20056;-80
2021/10/20 04:31:55;;;;;;;12.00;6.07;;;;;;;;;;5090395;28;20067;-81
2021/10/20 04:34:22;;;;;;;10.23;5.75;;;;;;;;;;5073135;28;20078;-81
2021/10/20 04:36:50;;;;;;;13.18;5.60;;;;;;;;;;5063148;28;20052;-82
2021/10/20 04:39:18;;;;;;;9.02;6.00;;;;;;;;;;5059991;28;20040;-82
2021/10/20 04:41:48;;;;;;;9.35;5.55;;;;;;;;;;5060060;28;20052;-82
2021/10/20 04:44:16;;;;;;;10.65;5.97;;;;;;;;;;5073687;28;20048;-82
2021/10/20 04:46:42;;;;;;;11.70;5.78;;;;;;;;;;5064789;28;20164;-84
2021/10/20 04:49:10;;;;;;;8.77;5.18;;;;;;;;;;5075479;28;20079;-82
2021/10/20 04:51:50;;;;;;;10.15;5.25;;;;;;;;;;5063011;28;20048;-82
2021/10/20 04:54:20;;;;;;;9.65;5.90;;;;;;;;;;5072716;28;20316;-82
2021/10/20 04:56:49;;;;;;;11.70;5.63;;;;;;;;;;5055995;28;20110;-82
2021/10/20 04:59:16;;;;;;;10.18;5.35;;;;;;;;;;5074077;28;20343;-81
2021/10/20 05:01:44;;;;;;;8.95;5.53;;;;;;;;;;5092288;28;20074;-84
2021/10/20 05:04:13;;;;;;;13.13;5.50;;;;;;;;;;5075930;28;20150;-84
2021/10/20 05:06:40;;;;;;;11.18;5.57;;;;;;;;;;5079040;28;20048;-83
2021/10/20 05:09:07;;;;;;;8.88;5.60;;;;;;;;;;5074173;28;20447;-83
2021/10/20 05:11:46;;;;;;;12.38;5.93;;;;;;;;;;5056876;28;20063;-83
2021/10/20 05:14:13;;;;;;;9.10;6.43;;;;;;;;;;5071859;28;20088;-83
2021/10/20 05:16:40;;;;;;;9.40;5.47;;;;;;;;;;5054060;28;20056;-83
2021/10/20 05:19:07;;;;;;;10.45;5.60;;;;;;;;;;5073004;28;20091;-84
2021/10/20 05:21:37;;;;;;;12.80;5.82;;;;;;;;;;5072745;28;20152;-83
2021/10/20 05:24:05;;;;;;;11.85;5.25;;;;;;;;;;5055948;28;20144;-85
2021/10/20 05:26:35;;;;;;;11.18;5.65;;;;;;;;;;5054352;28;20192;-84
2021/10/20 05:29:06;;;;;;;12.38;5.40;;;;;;;;;;5053645;28;20060;-84
2021/10/20 05:31:33;;;;;;;11.18;5.15;;;;;;;;;;5057518;28;20249;-84
2021/10/20 05:34:00;;;;;;;10.48;5.60;;;;;;;;;;5056987;28;20056;-84
2021/10/20 05:36:27;;;;;;;13.98;5.45;;;;;;;;;;5092721;28;20052;-84
2021/10/20 05:38:54;;;;;;;9.68;5.93;;;;;;;;;;5093700;28;20051;-83
2021/10/20 05:41:24;;;;;;;9.80;5.32;;;;;;;;;;5078314;28;20052;-84
2021/10/20 05:43:53;;;;;;;8.18;5.68;;;;;;;;;;5076375;28;20106;-84
2021/10/20 05:46:20;;;;;;;8.13;5.57;;;;;;;;;;5061263;28;20056;-84
2021/10/20 05:48:47;;;;;;;12.38;5.18;;;;;;;;;;5075126;28;20064;-85
2021/10/20 05:51:18;;;;;;;9.02;5.63;;;;;;;;;;5055778;28;20086;-85
2021/10/20 05:53:48;;;;;;;8.25;5.60;;;;;;;;;;5070760;28;20056;-83
2021/10/20 05:56:19;;;;;;;10.95;6.10;;;;;;;;;;5095481;28;20431;-83
2021/10/20 05:58:48;;;;;;;13.40;6.30;;;;;;;;;;5061590;28;20056;-84
2021/10/20 06:01:15;;;;;;;7.30;5.75;;;;;;;;;;5077908;28;20056;-83
2021/10/20 06:03:42;;;;;;;8.20;5.90;;;;;;;;;;5062363;28;20068;-83
2021/10/20 06:06:12;;;;;;;12.27;6.07;;;;;;;;;;5097008;28;20055;-83
2021/10/20 06:08:46;;;;;;;12.27;6.85;;;;;;;;;;5102540;28;20059;-83
2021/10/20 06:11:13;;;;;;;10.50;6.57;;;;;;;;;;5101135;28;20079;-84
2021/10/20 06:13:42;;;;;;;11.02;5.88;;;;;;;;;;5102471;28;20107;-84
2021/10/20 06:16:10;;;;;;;9.05;6.40;;;;;;;;;;5102927;28;20273;-84
2021/10/20 06:18:48;;;;;;;10.13;6.30;;;;;;;;;;5087893;28;20227;-84
2021/10/20 06:21:17;;;;;;;10.77;6.22;;;;;;;;;;5101647;28;20320;-84
2021/10/20 06:23:43;;;;;;;11.82;6.72;;;;;;;;;;5080960;28;20056;-84
2021/10/20 06:26:10;;;;;;;13.27;7.40;;;;;;;;;;5081715;28;20087;-81
2021/10/20 06:28:38;;;;;;;16.05;6.75;;;;;;;;;;5059219;28;20048;-81
2021/10/20 06:31:07;;;;;;;11.90;6.57;;;;;;;;;;5077343;28;20099;-81
2021/10/20 06:33:34;;;;;;;18.15;6.93;;;;;;;;;;5058157;28;20053;-81
2021/10/20 06:36:03;;;;;;;9.93;6.80;;;;;;;;;;5059320;28;20101;-81
2021/10/20 06:38:29;;;;;;;12.68;7.40;;;;;;;;;;5056805;28;20323;-80
2021/10/20 06:40:56;;;;;;;9.15;6.40;;;;;;;;;;5091179;28;20512;-81
2021/10/20 06:43:31;;;;;;;11.75;7.43;;;;;;;;;;5070606;28;20057;-80
2021/10/20 06:46:02;;;;;;;12.82;7.78;;;;;;;;;;5055100;28;20305;-80
2021/10/20 06:48:30;;;;;;;11.30;8.02;;;;;;;;;;5054675;28;20049;-79
2021/10/20 06:50:57;;;;;;;16.17;8.73;;;;;;;;;;5080453;28;20072;-80
2021/10/20 06:53:26;;;;;;;15.73;7.53;;;;;;;;;;5084474;28;20048;-82
2021/10/20 06:55:55;;;;;;;15.00;7.57;;;;;;;;;;5070097;28;20080;-80
2021/10/20 06:58:24;;;;;;;12.93;7.90;;;;;;;;;;5080891;28;20687;-81
2021/10/20 07:00:51;;;;;;;12.60;7.50;;;;;;;;;;5054733;28;20056;-80
2021/10/20 07:03:20;;;;;;;11.73;8.13;;;;;;;;;;5055568;28;20395;-81
2021/10/20 07:05:47;;;;;;;13.15;8.95;;;;;;;;;;5059926;28;20060;-80
2021/10/20 07:08:14;;;;;;;12.75;7.88;;;;;;;;;;5057744;28;20049;-81
2021/10/20 07:10:41;;;;;;;15.52;8.18;;;;;;;;;;5075328;28;20184;-81
2021/10/20 07:13:08;;;;;;;14.32;8.57;;;;;;;;;;5070021;28;20232;-81
2021/10/20 07:15:37;;;;;;;12.73;7.97;;;;;;;;;;5078432;28;20075;-81
2021/10/20 07:18:10;;;;;;;18.70;7.50;;;;;;;;;;5074562;28;20212;-81
2021/10/20 07:20:43;;;;;;;18.40;7.50;;;;;;;;;;5093951;28;20044;-82
2021/10/20 07:23:13;;;;;;;12.40;8.65;;;;;;;;;;5093311;28;20107;-81
2021/10/20 07:25:43;;;;;;;12.13;7.75;;;;;;;;;;5072317;28;20045;-80
2021/10/20 07:28:11;;;;;;;18.95;7.93;;;;;;;;;;5054841;28;20401;-81
2021/10/20 07:30:41;;;;;;;11.25;7.65;;;;;;;;;;5052273;28;20528;-82
2021/10/20 07:33:08;;;;;;;16.27;8.25;;;;;;;;;;5072521;28;20049;-84
2021/10/20 07:35:35;;;;;;;16.52;8.25;;;;;;;;;;5053688;28;20248;-82
2021/10/20 07:38:02;;;;;;;14.40;7.38;;;;;;;;;;5053223;28;20053;-82
2021/10/20 07:40:29;;;;;;;14.68;7.88;;;;;;;;;;5050493;28;20052;-83
2021/10/20 07:42:56;;;;;;;11.45;7.60;;;;;;;;;;5068596;28;20295;-81
2021/10/20 07:45:24;;;;;;;11.57;7.57;;;;;;;;;;5054262;28;20340;-82
2021/10/20 07:47:52;;;;;;;10.10;6.85;;;;;;;;;;5067584;28;20062;-84
2021/10/20 07:50:20;;;;;;;11.25;7.20;;;;;;;;;;5038535;28;20044;-82
2021/10/20 07:52:48;;;;;;;11.55;7.22;;;;;;;;;;5083672;28;20320;-83
2021/10/20 07:55:22;;;;;;;14.43;7.68;;;;;;;;;;5073148;28;20386;-83
2021/10/20 07:57:52;;;;;;;14.57;7.78;;;;;;;;;;5066300;28;20072;-81
2021/10/20 08:00:21;;;;;;;11.10;7.22;;;;;;;;;;5069334;28;20428;-82
2021/10/20 08:02:50;;;;;;;14.10;7.72;;;;;;;;;;5068324;28;20118;-83
2021/10/20 08:05:21;;;;;;;10.60;6.70;;;;;;;;;;5070209;28;20052;-82
2021/10/20 08:07:48;;;;;;;12.88;7.07;;;;;;;;;;5070027;28;20075;-81
2021/10/20 08:10:16;;;;;;;12.32;7.30;;;;;;;;;;5068631;28;20052;-82
2021/10/20 08:12:44;;;;;;;14.25;7.15;;;;;;;;;;5068420;28;20142;-81
2021/10/20 08:15:15;;;;;;;18.40;7.57;;;;;;;;;;5069184;28;20056;-82
2021/10/20 08:17:49;;;;;;;13.38;7.40;;;;;;;;;;5045851;28;20388;-82
2021/10/20 08:20:21;;;;;;;13.15;7.40;;;;;;;;;;5047951;28;20417;-82
2021/10/20 08:22:49;;;;;;;11.77;7.68;;;;;;;;;;5045075;28;20425;-84
2021/10/20 08:25:17;;;;;;;10.57;6.53;;;;;;;;;;5046992;28;20063;-82
2021/10/20 08:27:44;;;;;;;10.07;7.50;;;;;;;;;;5046594;28;20074;-82
2021/10/20 08:30:17;;;;;;;14.32;7.50;;;;;;;;;;5049447;28;20056;-82
2021/10/20 08:32:45;;;;;;;14.52;7.65;;;;;;;;;;5051774;28;20165;-83
2021/10/20 08:35:15;;;;;;;14.13;7.78;;;;;;;;;;5049198;28;20153;-82
2021/10/20 08:37:46;;;;;;;12.82;7.97;;;;;;;;;;5046800;28;20169;-83
2021/10/20 08:40:13;;;;;;;12.98;7.50;;;;;;;;;;5048136;28;20116;-83
2021/10/20 08:42:43;;;;;;;11.02;7.97;;;;;;;;;;5045962;28;20281;-83
2021/10/20 08:45:13;;;;;;;14.00;7.72;;;;;;;;;;5059021;28;20124;-83
2021/10/20 08:47:55;;;;;;;10.93;7.60;;;;;;;;;;5049649;28;20237;-81
2021/10/20 08:50:27;;;;;;;14.02;7.88;;;;;;;;;;5063533;28;20127;-82
2021/10/20 08:53:00;;;;;;;14.40;7.60;;;;;;;;;;5056166;28;20215;-83
2021/10/20 08:55:27;;;;;;;13.88;7.70;;;;;;;;;;5047429;28;20143;-82
2021/10/20 08:57:55;;;;;;;10.90;7.07;;;;;;;;;;5052870;28;20060;-84
2021/10/20 09:00:23;;;;;;;12.63;7.78;;;;;;;;;;5069667;28;20122;-82
2021/10/20 09:02:50;;;;;;;13.93;7.68;;;;;;;;;;5067504;28;20127;-83
2021/10/20 09:05:19;;;;;;;13.10;7.63;;;;;;;;;;5068116;28;20053;-82
2021/10/20 09:07:47;;;;;;;13.48;7.32;;;;;;;;;;5054536;28;20098;-82
2021/10/20 09:10:14;;;;;;;11.27;7.68;;;;;;;;;;5059917;28;20135;-82
2021/10/20 09:12:41;;;;;;;14.73;7.40;;;;;;;;;;5077047;28;20240;-82
2021/10/20 09:15:17;;;;;;;12.75;7.07;;;;;;;;;;5063307;28;20048;-82
2021/10/20 09:17:47;;;;;;;12.43;6.47;;;;;;;;;;5068998;28;20094;-82
2021/10/20 09:20:18;;;;;;;12.57;6.80;;;;;;;;;;5062708;28;20080;-82
2021/10/20 09:22:54;;;;;;;11.52;6.72;;;;;;;;;;5085795;28;20192;-82
2021/10/20 09:25:20;;;;;;;12.52;6.75;;;;;;;;;;5089917;28;20492;-83
2021/10/20 09:27:49;;;;;;;12.05;6.25;;;;;;;;;;5069437;28;20057;-83
2021/10/20 09:30:16;;;;;;;9.23;6.38;;;;;;;;;;5052366;28;20044;-83
2021/10/20 09:32:43;;;;;;;12.45;6.30;;;;;;;;;;5053372;28;20060;-82
2021/10/20 09:35:12;;;;;;;12.50;6.60;;;;;;;;;;5066180;28;20060;-82
2021/10/20 09:37:43;;;;;;;12.68;6.53;;;;;;;;;;5085097;28;20048;-82
2021/10/20 09:40:11;;;;;;;10.50;5.93;;;;;;;;;;5071198;28;20241;-83
2021/10/20 09:42:51;;;;;;;9.77;6.30;;;;;;;;;;5062434;28;20400;-82
2021/10/20 09:45:20;;;;;;;12.18;6.90;;;;;;;;;;5052378;28;20057;-81
2021/10/20 09:47:52;;;;;;;12.40;6.57;;;;;;;;;;5068824;28;20048;-82
2021/10/20 09:50:58;;;;;;;11.18;6.55;;;;;;;;;;5069623;28;20090;-82
2021/10/20 09:53:29;;;;;;;10.37;6.27;;;;;;;;;;5087407;28;20525;-83
2021/10/20 09:56:02;;;;;;;13.88;5.97;;;;;;;;;;5052975;28;20047;-82
2021/10/20 09:58:34;;;;;;;9.18;6.20;;;;;;;;;;5066882;28;20062;-81
2021/10/20 10:01:01;;;;;;;11.18;6.60;;;;;;;;;;5060506;28;20068;-81
2021/10/20 10:03:29;;;;;;;12.23;6.45;;;;;;;;;;5088604;28;20064;-82
2021/10/20 10:06:00;;;;;;;8.48;6.20;;;;;;;;;;5070275;28;20056;-81
2021/10/20 10:08:30;;;;;;;14.85;7.25;;;;;;;;;;5054184;28;20072;-82
2021/10/20 10:11:02;;;;;;;12.32;7.10;;;;;;;;;;5063774;28;20067;-82
2021/10/20 10:13:31;;;;;;;14.07;7.00;;;;;;;;;;5046913;28;20052;-81
2021/10/20 10:15:59;;;;;;;11.73;6.28;;;;;;;;;;5048289;28;20374;-81
2021/10/20 10:18:29;;;;;;;13.13;6.95;;;;;;;;;;5058502;28;20063;-81
2021/10/20 10:20:56;;;;;;;14.82;7.07;;;;;;;;;;5065784;28;20271;-81
2021/10/20 10:23:27;;;;;;;11.20;6.40;;;;;;;;;;5071889;28;20170;-82
2021/10/20 10:25:56;;;;;;;14.50;6.45;;;;;;;;;;5066186;28;20059;-80
2021/10/20 10:28:34;;;;;;;9.63;6.30;;;;;;;;;;5068445;28;20671;-81
2021/10/20 10:31:10;;;;;;;8.38;6.25;;;;;;;;;;5086991;28;20362;-81
2021/10/20 10:33:58;;;;;;;9.10;6.27;;;;;;;;;;5063601;28;20135;-81
2021/10/20 10:36:25;;;;;;;9.68;5.63;;;;;;;;;;5057374;28;20262;-81
2021/10/20 10:38:59;;;;;;;9.10;6.30;;;;;;;;;;5066102;28;20327;-81
2021/10/20 10:41:29;;;;;;;9.63;6.40;;;;;;;;;;5085588;28;20056;-80
2021/10/20 10:44:16;;;;;;;14.25;5.55;;;;;;;;;;5082189;28;20056;-80
2021/10/20 10:46:53;;;;;;;10.98;5.57;;;;;;;;;;5088285;28;20248;-80
2021/10/20 10:49:22;;;;;;;7.37;5.70;;;;;;;;;;5071308;28;20064;-81
2021/10/20 10:52:08;;;;;;;10.10;6.22;;;;;;;;;;5050894;28;20122;-80
2021/10/20 10:54:36;;;;;;;7.88;5.97;;;;;;;;;;5057646;28;20151;-80
2021/10/20 10:57:11;;;;;;;12.15;5.53;;;;;;;;;;5048398;28;20240;-80
2021/10/20 10:59:38;;;;;;;10.73;5.57;;;;;;;;;;5087733;28;20258;-80
2021/10/20 11:02:26;;;;;;;11.50;5.35;;;;;;;;;;5067048;28;20063;-80
2021/10/20 11:04:57;;;;;;;12.13;5.90;;;;;;;;;;5085950;28;20055;-80
2021/10/20 11:07:27;;;;;;;10.60;6.15;;;;;;;;;;5055991;28;20425;-81
2021/10/20 11:09:55;;;;;;;8.70;5.65;;;;;;;;;;5053541;28;20049;-81
2021/10/20 11:12:25;;;;;;;8.30;6.30;;;;;;;;;;5077726;28;20136;-81
2021/10/20 11:14:55;;;;;;;14.13;6.63;;;;;;;;;;5060044;28;20505;-81
2021/10/20 11:17:23;;;;;;;10.30;5.95;;;;;;;;;;5057634;28;20099;-81
2021/10/20 11:19:50;;;;;;;8.88;6.28;;;;;;;;;;5075570;28;20226;-81
2021/10/20 11:22:17;;;;;;;13.32;5.93;;;;;;;;;;5072559;28;20064;-79
2021/10/20 11:24:46;;;;;;;9.93;5.65;;;;;;;;;;5053858;28;20064;-80
2021/10/20 11:27:13;;;;;;;12.10;6.65;;;;;;;;;;5061293;28;20102;-81
2021/10/20 11:29:44;;;;;;;14.02;5.95;;;;;;;;;;5060298;28;20160;-80
2021/10/20 11:32:15;;;;;;;10.50;5.82;;;;;;;;;;5073236;28;20072;-80
2021/10/20 11:34:45;;;;;;;10.60;6.03;;;;;;;;;;5053263;28;20058;-81
2021/10/20 11:37:16;;;;;;;11.98;6.38;;;;;;;;;;5067963;28;20214;-82
2021/10/20 11:39:57;;;;;;;8.88;5.68;;;;;;;;;;5073657;28;20048;-83
2021/10/20 11:42:24;;;;;;;8.18;5.82;;;;;;;;;;5066096;28;20049;-82
2021/10/20 11:44:58;;;;;;;15.38;6.82;;;;;;;;;;5051841;28;20363;-81
2021/10/20 11:47:27;;;;;;;9.45;6.72;;;;;;;;;;5072297;28;20302;-81
2021/10/20 11:49:56;;;;;;;11.77;6.40;;;;;;;;;;5087749;28;20048;-81
2021/10/20 11:52:23;;;;;;;11.15;6.20;;;;;;;;;;5073285;28;20155;-81
2021/10/20 11:54:56;;;;;;;11.35;6.03;;;;;;;;;;5088035;28;20298;-81
2021/10/20 11:57:24;;;;;;;8.05;5.35;;;;;;;;;;5084453;28;20108;-81
2021/10/20 11:59:55;;;;;;;9.73;5.70;;;;;;;;;;5069364;28;20377;-81
2021/10/20 12:02:28;;;;;;;11.00;6.05;;;;;;;;;;5067451;28;20157;-81
2021/10/20 12:05:05;;;;;;;9.82;5.85;;;;;;;;;;5050541;28;20062;-81
2021/10/20 12:07:35;;;;;;;8.77;5.88;;;;;;;;;;5058005;28;20055;-82
2021/10/20 12:10:06;;;;;;;8.27;5.40;;;;;;;;;;5064040;28;20217;-82
2021/10/20 12:12:36;;;;;;;9.02;5.55;;;;;;;;;;5068264;28;20102;-82
2021/10/20 12:15:05;;;;;;;10.27;5.72;;;;;;;;;;5062356;28;20049;-82
2021/10/20 12:17:32;;;;;;;12.77;5.97;;;;;;;;;;5072048;28;20437;-81
2021/10/20 12:20:05;;;;;;;9.77;5.95;;;;;;;;;;5070947;28;20118;-82
2021/10/20 12:22:39;;;;;;;11.00;5.63;;;;;;;;;;5090284;28;20413;-84
2021/10/20 12:25:06;;;;;;;8.77;5.57;;;;;;;;;;5070836;28;20122;-82
2021/10/20 12:27:37;;;;;;;9.18;6.40;;;;;;;;;;5088614;28;20226;-82
2021/10/20 12:30:06;;;;;;;8.95;5.85;;;;;;;;;;5079722;28;20121;-83
2021/10/20 12:32:36;;;;;;;9.98;5.82;;;;;;;;;;5069993;28;20523;-82
2021/10/20 12:35:21;;;;;;;8.45;5.70;;;;;;;;;;5066389;28;20072;-82
2021/10/20 12:37:50;;;;;;;9.57;5.50;;;;;;;;;;5063434;28;20059;-83
2021/10/20 12:40:25;;;;;;;12.85;6.47;;;;;;;;;;5067517;28;20058;-82
2021/10/20 12:42:58;;;;;;;8.20;6.05;;;;;;;;;;5061945;28;20102;-83
2021/10/20 12:45:27;;;;;;;9.63;6.45;;;;;;;;;;5076896;28;20051;-83
2021/10/20 12:48:00;;;;;;;9.63;6.68;;;;;;;;;;5088306;28;20066;-82
2021/10/20 12:50:31;;;;;;;13.35;6.43;;;;;;;;;;5047860;28;20366;-81
2021/10/20 12:53:00;;;;;;;8.48;6.57;;;;;;;;;;5049617;28;20311;-81
2021/10/20 12:55:46;;;;;;;10.25;6.43;;;;;;;;;;5071542;28;20063;-82
2021/10/20 12:58:14;;;;;;;9.82;6.20;;;;;;;;;;5063254;28;20048;-82
2021/10/20 13:00:43;;;;;;;8.98;6.07;;;;;;;;;;5056068;28;20166;-81
2021/10/20 13:03:11;;;;;;;10.38;6.13;;;;;;;;;;5046359;28;20044;-81
2021/10/20 13:05:38;;;;;;;9.30;5.78;;;;;;;;;;5058998;28;20214;-81
2021/10/20 13:08:07;;;;;;;8.90;5.93;;;;;;;;;;5053853;28;20061;-82
2021/10/20 13:10:47;;;;;;;7.13;5.18;;;;;;;;;;5045725;28;20049;-82
2021/10/20 13:13:17;;;;;;;7.32;5.25;;;;;;;;;;5062518;28;20499;-82
2021/10/20 13:15:47;;;;;;;8.80;4.97;;;;;;;;;;5046714;28;20180;-82
2021/10/20 13:18:14;;;;;;;12.77;5.20;;;;;;;;;;5055197;28;20436;-82
2021/10/20 13:20:42;;;;;;;9.30;4.47;;;;;;;;;;5055131;28;20109;-82
2021/10/20 13:23:26;;;;;;;8.35;5.07;;;;;;;;;;5059949;28;20080;-81
2021/10/20 13:25:56;;;;;;;12.02;5.40;;;;;;;;;;5046761;28;20049;-82
2021/10/20 13:28:23;;;;;;;7.22;5.30;;;;;;;;;;5067402;28;20064;-81
2021/10/20 13:30:51;;;;;;;8.25;4.78;;;;;;;;;;5050868;28;20221;-81
2021/10/20 13:33:18;;;;;;;6.93;4.30;;;;;;;;;;5046347;28;20049;-82
2021/10/20 13:35:49;;;;;;;11.75;5.25;;;;;;;;;;5047914;28;20057;-81
2021/10/20 13:38:21;;;;;;;8.98;4.63;;;;;;;;;;5052661;28;20464;-81
2021/10/20 13:40:51;;;;;;;10.45;4.10;;;;;;;;;;5062321;28;20106;-81
2021/10/20 13:43:20;;;;;;;7.93;4.40;;;;;;;;;;5052080;28;20223;-80
2021/10/20 13:45:48;;;;;;;10.25;5.18;;;;;;;;;;5047280;28;20045;-82
2021/10/20 13:48:15;;;;;;;9.13;4.32;;;;;;;;;;5045531;28;20271;-81
2021/10/20 13:50:45;;;;;;;9.90;4.80;;;;;;;;;;5063888;28;20114;-82
2021/10/20 13:53:12;;;;;;;9.00;4.80;;;;;;;;;;5069377;28;20083;-82
2021/10/20 13:55:39;;;;;;;8.20;4.32;;;;;;;;;;5056714;28;20247;-82
2021/10/20 13:58:08;;;;;;;7.70;4.55;;;;;;;;;;5053100;28;20072;-82
2021/10/20 14:00:42;;;;;;;6.88;4.38;;;;;;;;;;5065569;28;20051;-82
2021/10/20 14:03:12;;;;;;;9.38;4.38;;;;;;;;;;5057801;28;20060;-82
2021/10/20 14:05:39;;;;;;;11.70;4.50;;;;;;;;;;5088346;28;20432;-82
2021/10/20 14:08:07;;;;;;;5.95;4.32;;;;;;;;;;5090498;28;20043;-81
2021/10/20 14:10:35;;;;;;;13.18;5.03;;;;;;;;;;5063897;28;20059;-80
2021/10/20 14:13:03;;;;;;;10.32;4.53;;;;;;;;;;5064989;28;20232;-82
2021/10/20 14:15:35;;;;;;;7.82;4.35;;;;;;;;;;5051014;28;20143;-82
2021/10/20 14:18:06;;;;;;;8.70;4.82;;;;;;;;;;5052801;28;20048;-82
2021/10/20 14:20:36;;;;;;;8.40;4.72;;;;;;;;;;5070314;28;20051;-82
2021/10/20 14:23:07;;;;;;;8.45;5.05;;;;;;;;;;5082749;28;20052;-82
2021/10/20 14:25:37;;;;;;;11.60;5.00;;;;;;;;;;5064846;28;20052;-82
2021/10/20 14:28:04;;;;;;;7.35;4.53;;;;;;;;;;5084685;28;20052;-83
2021/10/20 14:30:32;;;;;;;6.90;4.45;;;;;;;;;;5047918;28;20078;-80
2021/10/20 14:33:00;;;;;;;8.50;4.70;;;;;;;;;;5048139;28;20064;-81
2021/10/20 14:35:27;;;;;;;11.80;4.47;;;;;;;;;;5050458;28;20061;-80
2021/10/20 14:37:54;;;;;;;6.30;4.80;;;;;;;;;;5078253;28;20052;-81
2021/10/20 14:40:29;;;;;;;11.90;5.20;;;;;;;;;;5084972;28;20185;-81
2021/10/20 14:43:01;;;;;;;8.27;5.32;;;;;;;;;;5048881;28;20056;-83